Time;durP1;ratioP1;P1;durP2;ratioP2;P2;SDS_P1;SDS_P2;PMS_P1;PMS_P2;Temp;Humidity;BMP_temperature;BMP_pressure;BME280_temperature;BME280_humidity;BME280_pressure;Samples;Min_cycle;Max_cycle;Signal;HPM_P1;HPM_P2
2023/12/14 00:01:33;;;;;;;40.78;24.38;;;;;;;5.59;100.00;100641.88;4963806;28;20126;-69
2023/12/14 00:03:58;;;;;;;43.08;25.45;;;;;;;5.58;100.00;100646.28;4958176;28;20042;-70
2023/12/14 00:06:24;;;;;;;37.47;24.30;;;;;;;5.52;100.00;100648.25;4965672;28;20580;-70
2023/12/14 00:08:49;;;;;;;39.15;24.45;;;;;;;5.52;100.00;100662.34;4968851;28;20677;-70
2023/12/14 00:11:15;;;;;;;40.35;25.00;;;;;;;5.49;100.00;100663.31;4961425;28;20061;-70
2023/12/14 00:13:40;;;;;;;41.88;25.70;;;;;;;5.46;100.00;100671.31;4958069;28;20042;-70
2023/12/14 00:16:06;;;;;;;39.60;25.55;;;;;;;5.40;100.00;100668.03;4964096;28;20035;-70
2023/12/14 00:18:31;;;;;;;36.55;22.83;;;;;;;5.38;100.00;100686.53;4972997;28;20039;-70
2023/12/14 00:20:57;;;;;;;35.75;22.83;;;;;;;5.29;100.00;100670.13;4969293;28;20027;-69
2023/12/14 00:23:23;;;;;;;35.60;23.48;;;;;;;5.31;100.00;100685.03;4979776;28;20042;-69
2023/12/14 00:25:49;;;;;;;37.53;24.17;;;;;;;5.32;100.00;100691.16;4980364;28;20481;-71
2023/12/14 00:28:14;;;;;;;35.70;22.77;;;;;;;5.32;100.00;100691.16;4973695;28;20045;-69
2023/12/14 00:30:39;;;;;;;36.90;23.45;;;;;;;5.30;100.00;100704.38;4977347;28;20038;-70
2023/12/14 00:33:05;;;;;;;35.95;23.75;;;;;;;5.30;100.00;100704.38;4981032;28;20038;-70
2023/12/14 00:35:30;;;;;;;41.15;25.42;;;;;;;5.29;100.00;100712.38;4962643;28;20735;-70
2023/12/14 00:37:55;;;;;;;37.35;23.80;;;;;;;5.27;100.00;100716.81;4964440;28;20598;-71
2023/12/14 00:40:21;;;;;;;37.90;23.45;;;;;;;5.25;100.00;100736.19;4960289;28;20329;-69
2023/12/14 00:42:46;;;;;;;32.10;21.73;;;;;;;5.22;100.00;100740.69;4964952;28;20485;-69
2023/12/14 00:45:11;;;;;;;35.08;22.10;;;;;;;5.22;100.00;100754.78;4978491;28;20114;-69
2023/12/14 00:47:37;;;;;;;33.67;21.85;;;;;;;5.16;100.00;100754.94;4968085;28;20532;-70
2023/12/14 00:50:05;;;;;;;33.67;22.00;;;;;;;5.16;100.00;100765.50;4974082;28;20114;-70
2023/12/14 00:52:31;;;;;;;34.47;22.85;;;;;;;5.10;100.00;100759.53;4967425;28;20042;-71
2023/12/14 00:54:56;;;;;;;37.72;24.75;;;;;;;5.07;100.00;100768.44;4969640;28;20504;-70
2023/12/14 00:57:21;;;;;;;41.38;25.17;;;;;;;5.08;100.00;100769.28;4960269;28;20031;-71
2023/12/14 00:59:47;;;;;;;39.22;24.30;;;;;;;4.99;100.00;100763.38;4958762;28;20480;-70
2023/12/14 01:02:12;;;;;;;43.65;27.25;;;;;;;5.07;100.00;100778.13;4971820;28;20058;-71
2023/12/14 01:04:37;;;;;;;40.42;25.23;;;;;;;5.07;100.00;100781.63;4964971;28;20039;-70
2023/12/14 01:07:06;;;;;;;48.03;27.73;;;;;;;5.04;100.00;100781.69;4967680;28;20061;-70
2023/12/14 01:09:31;;;;;;;41.45;26.88;;;;;;;5.00;100.00;100787.97;4955619;28;20042;-70
2023/12/14 01:11:56;;;;;;;48.30;28.85;;;;;;;4.98;100.00;100790.66;4971397;28;20083;-71
2023/12/14 01:14:22;;;;;;;47.90;28.25;;;;;;;4.99;100.00;100788.88;4980710;28;20140;-71
2023/12/14 01:16:48;;;;;;;44.40;27.77;;;;;;;4.98;100.00;100789.81;4972340;28;20046;-70
2023/12/14 01:19:13;;;;;;;45.22;27.00;;;;;;;4.96;100.00;100787.19;4972228;28;20101;-70
2023/12/14 01:21:39;;;;;;;49.97;29.08;;;;;;;4.97;100.00;100795.97;4976177;28;20129;-70
2023/12/14 01:24:05;;;;;;;49.55;28.10;;;;;;;5.03;100.00;100800.22;4982707;28;20061;-70
2023/12/14 01:26:30;;;;;;;56.38;30.92;;;;;;;5.03;100.00;100813.41;4982861;28;20074;-70
2023/12/14 01:28:55;;;;;;;63.85;32.90;;;;;;;4.97;100.00;100817.97;4981027;28;20050;-70
2023/12/14 01:31:23;;;;;;;63.05;34.60;;;;;;;4.98;100.00;100822.31;4982891;28;20050;-70
2023/12/14 01:33:49;;;;;;;71.95;35.33;;;;;;;4.95;100.00;100834.72;4979184;28;20041;-71
2023/12/14 01:36:41;;;;;;;69.82;35.17;;;;;;;4.96;100.00;100839.94;4973081;28;20042;-70
2023/12/14 01:39:06;;;;;;;71.70;35.53;;;;;;;4.87;100.00;100848.13;4971011;28;20051;-70
2023/12/14 01:41:32;;;;;;;71.18;34.97;;;;;;;4.85;100.00;100857.84;4975188;28;20490;-70
2023/12/14 01:43:57;;;;;;;70.82;34.92;;;;;;;4.84;100.00;100858.75;4981257;28;20035;-70
2023/12/14 01:46:22;;;;;;;73.10;36.30;;;;;;;4.81;100.00;100868.50;4975894;28;20042;-71
2023/12/14 01:48:48;;;;;;;72.15;34.53;;;;;;;4.79;100.00;100862.41;4976535;28;20149;-71
2023/12/14 01:51:13;;;;;;;66.22;32.28;;;;;;;4.67;100.00;100860.97;4974611;28;20129;-71
2023/12/14 01:53:40;;;;;;;63.17;32.03;;;;;;;4.67;100.00;100868.88;4982062;28;20050;-70
2023/12/14 01:56:06;;;;;;;66.43;32.33;;;;;;;4.56;100.00;100868.31;4983581;28;20118;-70
2023/12/14 01:58:31;;;;;;;59.03;30.40;;;;;;;4.56;100.00;100873.56;4986675;28;20371;-70
2023/12/14 02:01:07;;;;;;;60.15;29.90;;;;;;;4.58;100.00;100900.75;4982555;28;20037;-70
2023/12/14 02:03:33;;;;;;;61.10;30.45;;;;;;;4.54;100.00;100894.69;4977753;28;20041;-70
2023/12/14 02:06:00;;;;;;;56.63;28.38;;;;;;;4.52;100.00;100903.56;4982806;28;20526;-71
2023/12/14 02:08:28;;;;;;;55.25;29.65;;;;;;;4.46;100.00;100905.41;4982892;28;20038;-70
2023/12/14 02:10:53;;;;;;;50.53;27.85;;;;;;;4.47;100.00;100901.91;4970101;28;20088;-70
2023/12/14 02:13:19;;;;;;;56.63;30.42;;;;;;;4.45;100.00;100911.59;4980545;28;20074;-71
2023/12/14 02:15:44;;;;;;;54.13;29.00;;;;;;;4.48;100.00;100915.94;4974235;28;20088;-69
2023/12/14 02:18:09;;;;;;;51.70;28.42;;;;;;;4.45;100.00;100922.13;4978637;28;20069;-71
2023/12/14 02:20:35;;;;;;;54.65;28.88;;;;;;;4.43;100.00;100923.06;4981641;28;20133;-70
2023/12/14 02:23:01;;;;;;;52.55;28.48;;;;;;;4.44;100.00;100930.09;4974162;28;20041;-70
2023/12/14 02:25:27;;;;;;;50.60;27.52;;;;;;;4.44;100.00;100938.00;4970231;28;20050;-71
2023/12/14 02:27:52;;;;;;;50.15;27.88;;;;;;;4.35;100.00;100935.59;4977523;28;20042;-71
2023/12/14 02:30:18;;;;;;;47.72;27.55;;;;;;;4.40;100.00;100960.06;4969859;28;20121;-71
2023/12/14 02:32:44;;;;;;;45.63;26.48;;;;;;;4.38;100.00;100954.81;4975055;28;20046;-71
2023/12/14 02:35:09;;;;;;;42.50;25.85;;;;;;;4.29;100.00;100965.56;4971387;28;20695;-71
2023/12/14 02:37:40;;;;;;;49.10;24.85;;;;;;;4.27;100.00;100962.13;4981017;28;20054;-69
2023/12/14 02:40:06;;;;;;;42.60;25.42;;;;;;;4.33;100.00;100961.09;4978731;28;20825;-70
2023/12/14 02:42:31;;;;;;;43.15;26.05;;;;;;;4.28;100.00;100962.97;4978152;28;20038;-71
2023/12/14 02:44:57;;;;;;;40.58;24.92;;;;;;;4.22;100.00;100961.31;4978120;28;20043;-71
2023/12/14 02:47:22;;;;;;;43.38;25.05;;;;;;;4.33;100.00;100971.63;4975823;28;20088;-69
2023/12/14 02:49:48;;;;;;;42.83;25.50;;;;;;;4.29;100.00;100980.50;4982402;28;20041;-70
2023/12/14 02:52:13;;;;;;;43.47;27.77;;;;;;;4.30;100.00;100984.88;4982483;28;20125;-70
2023/12/14 02:54:39;;;;;;;43.83;26.08;;;;;;;4.32;100.00;100983.94;4978385;28;20070;-70
2023/12/14 02:57:05;;;;;;;46.20;26.60;;;;;;;4.30;100.00;100995.41;4983032;28;20034;-71
2023/12/14 02:59:30;;;;;;;45.50;26.83;;;;;;;4.26;100.00;100994.59;4980248;28;20741;-70
2023/12/14 03:01:56;;;;;;;43.85;25.73;;;;;;;4.25;100.00;101000.78;4981548;28;20034;-71
2023/12/14 03:04:21;;;;;;;42.75;25.27;;;;;;;4.22;100.00;101000.84;4976776;28;20078;-71
2023/12/14 03:06:46;;;;;;;43.92;25.67;;;;;;;4.24;100.00;101013.09;4978426;28;20093;-71
2023/12/14 03:09:12;;;;;;;42.95;26.58;;;;;;;4.22;100.00;101011.38;4986064;28;20031;-71
2023/12/14 03:11:37;;;;;;;41.88;25.63;;;;;;;4.17;100.00;101013.25;4977829;28;20365;-70
2023/12/14 03:14:03;;;;;;;37.88;23.17;;;;;;;4.12;100.00;101001.97;4981064;28;20062;-71
2023/12/14 03:16:28;;;;;;;35.22;23.38;;;;;;;4.07;100.00;101012.59;4972458;28;20402;-71
2023/12/14 03:18:53;;;;;;;35.03;22.35;;;;;;;4.10;100.00;101022.22;4988490;28;20179;-71
2023/12/14 03:21:19;;;;;;;34.88;22.55;;;;;;;4.06;100.00;101021.41;4997346;28;20042;-71
2023/12/14 03:23:45;;;;;;;34.28;23.63;;;;;;;4.08;100.00;101026.63;4995252;28;20038;-73
2023/12/14 03:26:11;;;;;;;36.15;23.27;;;;;;;4.05;100.00;101024.91;4992961;28;20412;-72
2023/12/14 03:28:36;;;;;;;38.30;23.33;;;;;;;4.05;100.00;101029.31;4983339;28;20049;-71
2023/12/14 03:31:02;;;;;;;34.50;22.52;;;;;;;4.03;100.00;101034.63;4978370;28;20496;-70
2023/12/14 03:33:27;;;;;;;34.45;22.52;;;;;;;4.00;100.00;101038.19;4980072;28;20027;-72
2023/12/14 03:35:52;;;;;;;38.55;24.10;;;;;;;3.95;100.00;101034.78;4979575;28;20508;-70
2023/12/14 03:38:18;;;;;;;35.65;22.40;;;;;;;3.96;100.00;101039.16;4984212;28;20046;-71
2023/12/14 03:40:43;;;;;;;37.80;22.67;;;;;;;3.91;100.00;101035.75;4975367;28;20047;-71
2023/12/14 03:43:09;;;;;;;37.83;23.20;;;;;;;3.92;100.00;101042.75;4981924;28;20483;-71
2023/12/14 03:45:34;;;;;;;37.47;23.10;;;;;;;3.88;100.00;101048.97;4986474;28;21045;-70
2023/12/14 03:47:59;;;;;;;34.83;22.75;;;;;;;3.87;100.00;101049.88;4982068;28;20560;-71
2023/12/14 03:50:24;;;;;;;36.63;22.58;;;;;;;3.88;100.00;101056.88;4978527;28;20088;-71
2023/12/14 03:52:50;;;;;;;33.95;23.42;;;;;;;3.82;100.00;101045.59;4982705;28;20570;-71
2023/12/14 03:55:15;;;;;;;38.45;24.85;;;;;;;3.85;100.00;101056.09;4983055;28;20209;-71
2023/12/14 03:57:42;;;;;;;34.03;22.42;;;;;;;3.85;100.00;101062.22;4981580;28;20047;-72
2023/12/14 04:00:10;;;;;;;36.47;23.73;;;;;;;3.85;100.00;101064.00;4981915;28;20054;-71
2023/12/14 04:02:39;;;;;;;35.58;23.15;;;;;;;3.86;100.00;101066.56;4976648;28;20030;-71
2023/12/14 04:05:06;;;;;;;37.97;23.35;;;;;;;3.86;100.00;101071.84;4976785;28;20042;-71
2023/12/14 04:07:31;;;;;;;37.95;24.85;;;;;;;3.88;100.00;101080.56;4983503;28;20088;-72
2023/12/14 04:09:57;;;;;;;36.47;24.17;;;;;;;3.90;100.00;101077.94;4981858;28;20058;-72
2023/12/14 04:12:22;;;;;;;38.25;25.63;;;;;;;3.83;100.00;101073.66;4956228;28;20046;-71
2023/12/14 04:14:47;;;;;;;38.40;24.50;;;;;;;3.91;100.00;101066.47;4946755;28;20089;-71
2023/12/14 04:17:13;;;;;;;37.83;25.13;;;;;;;3.85;100.00;101070.13;4961719;28;20035;-73
2023/12/14 04:19:39;;;;;;;37.17;24.52;;;;;;;3.91;100.00;101080.50;4958254;28;20490;-70
2023/12/14 04:22:05;;;;;;;37.47;25.70;;;;;;;3.86;100.00;101070.97;4959880;28;20113;-72
2023/12/14 04:24:30;;;;;;;34.42;24.45;;;;;;;3.86;100.00;101071.84;4955758;28;20043;-72
2023/12/14 04:26:56;;;;;;;37.78;26.10;;;;;;;3.85;100.00;101078.03;4962991;28;20047;-72
2023/12/14 04:29:21;;;;;;;34.72;24.70;;;;;;;3.83;100.00;101077.16;4960747;28;20042;-72
2023/12/14 04:31:46;;;;;;;36.20;23.98;;;;;;;3.85;100.00;101085.91;4964932;28;20104;-72
2023/12/14 04:34:15;;;;;;;36.78;24.42;;;;;;;3.87;100.00;101092.00;4965738;28;20031;-71
2023/12/14 04:36:41;;;;;;;38.15;25.23;;;;;;;3.92;100.00;101100.69;4959592;28;20126;-72
2023/12/14 04:39:07;;;;;;;34.65;24.77;;;;;;;3.89;100.00;101113.06;4944385;28;20035;-73
2023/12/14 04:41:32;;;;;;;38.38;26.63;;;;;;;3.90;100.00;101115.66;4963474;28;20125;-71
2023/12/14 04:43:57;;;;;;;35.85;24.15;;;;;;;3.77;100.00;101097.50;4962660;28;20141;-72
2023/12/14 04:46:23;;;;;;;35.92;25.05;;;;;;;3.90;100.00;101131.47;4962024;28;20508;-71
2023/12/14 04:48:48;;;;;;;36.25;24.65;;;;;;;3.89;100.00;101128.88;4962462;28;20038;-71
2023/12/14 04:51:14;;;;;;;35.92;24.45;;;;;;;3.94;100.00;101143.66;4961430;28;20046;-71
2023/12/14 04:53:39;;;;;;;34.22;24.77;;;;;;;3.89;100.00;101148.16;4956826;28;20027;-70
2023/12/14 04:56:09;;;;;;;35.90;24.58;;;;;;;3.94;100.00;101150.72;4964481;28;20125;-71
2023/12/14 04:58:34;;;;;;;32.40;23.50;;;;;;;3.92;100.00;101153.34;4958677;28;20033;-72
2023/12/14 05:01:00;;;;;;;33.53;24.70;;;;;;;3.91;100.00;101164.78;4967853;28;20492;-71
2023/12/14 05:03:25;;;;;;;37.55;25.20;;;;;;;3.89;100.00;101166.59;4963175;28;20054;-70
2023/12/14 05:05:50;;;;;;;33.78;24.88;;;;;;;3.86;100.00;101171.91;4955491;28;20041;-71
2023/12/14 05:08:16;;;;;;;34.78;25.73;;;;;;;3.89;100.00;101184.16;4954124;28;20043;-71
2023/12/14 05:10:41;;;;;;;30.52;22.83;;;;;;;3.90;100.00;101173.59;4953878;28;20066;-71
2023/12/14 05:13:07;;;;;;;32.13;24.30;;;;;;;3.91;100.00;101177.94;4976547;28;20042;-71
2023/12/14 05:15:33;;;;;;;29.13;21.92;;;;;;;3.86;100.00;101174.53;4972442;28;20129;-70
2023/12/14 05:17:59;;;;;;;33.25;23.63;;;;;;;3.87;100.00;101181.53;4980831;28;20045;-70
2023/12/14 05:20:24;;;;;;;31.60;22.13;;;;;;;3.84;100.00;101188.63;4974655;28;20092;-72
2023/12/14 05:22:49;;;;;;;27.77;21.65;;;;;;;3.85;100.00;101204.41;4978047;28;20165;-71
2023/12/14 05:25:14;;;;;;;26.33;20.73;;;;;;;3.87;100.00;101217.53;4981008;28;20065;-70
2023/12/14 05:27:40;;;;;;;27.13;21.23;;;;;;;3.85;100.00;101211.44;4984353;28;20536;-71
2023/12/14 05:30:07;;;;;;;25.40;20.98;;;;;;;3.84;100.00;101218.44;4977890;28;20105;-71
2023/12/14 05:32:32;;;;;;;26.83;21.58;;;;;;;3.83;100.00;101231.66;4983001;28;20042;-71
2023/12/14 05:34:59;;;;;;;25.10;20.58;;;;;;;3.83;100.00;101237.78;4975789;28;20041;-71
2023/12/14 05:37:25;;;;;;;25.70;21.23;;;;;;;3.82;100.00;101233.41;4976221;28;20497;-71
2023/12/14 05:39:50;;;;;;;26.38;20.88;;;;;;;3.79;100.00;101237.88;4978817;28;20064;-71
2023/12/14 05:42:17;;;;;;;27.67;21.95;;;;;;;3.85;100.00;101250.94;4988365;28;20082;-71
2023/12/14 05:44:44;;;;;;;27.38;21.52;;;;;;;3.87;100.00;101254.41;4977307;28;20034;-71
2023/12/14 05:47:10;;;;;;;27.38;21.85;;;;;;;3.84;100.00;101255.31;4973815;28;20053;-72
2023/12/14 05:49:37;;;;;;;26.88;22.27;;;;;;;3.90;100.00;101267.53;4969178;28;20138;-72
2023/12/14 05:52:03;;;;;;;27.98;22.50;;;;;;;3.89;100.00;101273.69;4979547;28;20492;-72
2023/12/14 05:54:28;;;;;;;25.73;21.25;;;;;;;3.86;100.00;101273.75;4980944;28;20146;-70
2023/12/14 05:56:53;;;;;;;27.10;22.13;;;;;;;3.86;100.00;101284.28;4976132;28;20488;-70
2023/12/14 05:59:18;;;;;;;26.13;21.45;;;;;;;3.75;100.00;101280.03;4982200;28;20512;-71
2023/12/14 06:01:44;;;;;;;25.58;20.65;;;;;;;3.80;100.00;101295.75;4980096;28;20050;-72
2023/12/14 06:04:09;;;;;;;26.67;21.65;;;;;;;3.87;100.00;101305.31;4983136;28;20053;-71
2023/12/14 06:06:34;;;;;;;25.73;21.10;;;;;;;3.92;100.00;101308.72;4986811;28;20508;-71
2023/12/14 06:09:00;;;;;;;26.67;22.35;;;;;;;3.91;100.00;101308.75;4993763;28;20056;-71
2023/12/14 06:11:25;;;;;;;28.98;22.88;;;;;;;3.85;100.00;101311.50;5003441;28;20034;-71
2023/12/14 06:13:51;;;;;;;28.95;22.25;;;;;;;3.93;100.00;101314.84;4989431;28;20030;-73
2023/12/14 06:16:16;;;;;;;28.67;22.50;;;;;;;3.93;100.00;101315.75;4994859;28;20066;-71
2023/12/14 06:18:43;;;;;;;30.33;24.20;;;;;;;3.91;100.00;101321.94;4993970;28;20412;-71
2023/12/14 06:21:08;;;;;;;31.73;23.58;;;;;;;3.88;100.00;101333.38;4984373;28;20042;-72
2023/12/14 06:23:35;;;;;;;28.17;23.33;;;;;;;3.86;100.00;101326.41;4979419;28;20412;-72
2023/12/14 06:26:03;;;;;;;27.85;23.10;;;;;;;3.90;100.00;101328.97;4981838;28;20045;-71
2023/12/14 06:28:30;;;;;;;29.50;23.13;;;;;;;3.94;100.00;101333.28;4977737;28;20089;-72
2023/12/14 06:30:55;;;;;;;28.08;22.08;;;;;;;3.91;100.00;101333.34;4980754;28;20046;-72
2023/12/14 06:33:21;;;;;;;28.05;22.55;;;;;;;3.84;100.00;101329.03;4976591;28;20049;-72
2023/12/14 06:35:47;;;;;;;27.70;22.30;;;;;;;3.91;100.00;101345.63;4974758;28;20493;-72
2023/12/14 06:38:12;;;;;;;27.85;21.45;;;;;;;3.87;100.00;101357.97;4971070;28;20039;-71
2023/12/14 06:40:40;;;;;;;26.60;21.90;;;;;;;3.89;100.00;101360.59;4975822;28;20493;-72
2023/12/14 06:43:06;;;;;;;27.58;21.75;;;;;;;3.91;100.00;101364.06;4995760;28;20046;-71
2023/12/14 06:45:31;;;;;;;27.58;22.00;;;;;;;3.91;100.00;101369.34;4965403;28;20035;-72
2023/12/14 06:47:56;;;;;;;28.45;22.42;;;;;;;3.93;100.00;101370.16;4984835;28;20045;-72
2023/12/14 06:50:22;;;;;;;26.92;21.58;;;;;;;3.95;100.00;101374.53;4978888;28;20034;-72
2023/12/14 06:52:47;;;;;;;26.13;21.27;;;;;;;3.96;100.00;101372.75;4980800;28;20445;-72
2023/12/14 06:55:14;;;;;;;26.00;21.63;;;;;;;3.93;100.00;101370.16;4979616;28;20161;-72
2023/12/14 06:57:42;;;;;;;28.33;22.33;;;;;;;3.88;100.00;101364.97;4983092;28;20035;-73
2023/12/14 07:00:11;;;;;;;26.40;21.50;;;;;;;3.93;100.00;101370.16;4974387;28;20165;-72
2023/12/14 07:02:39;;;;;;;25.85;22.02;;;;;;;3.90;100.00;101378.13;4977566;28;20050;-72
2023/12/14 07:05:05;;;;;;;27.67;22.23;;;;;;;3.91;100.00;101378.09;4967599;28;20150;-72
2023/12/14 07:07:30;;;;;;;27.63;21.38;;;;;;;3.86;100.00;101374.69;4963096;28;20072;-72
2023/12/14 07:09:56;;;;;;;25.40;21.33;;;;;;;3.91;100.00;101390.41;4977976;28;20152;-73
2023/12/14 07:12:21;;;;;;;26.38;21.95;;;;;;;3.91;100.00;101393.91;4975330;28;20049;-72
2023/12/14 07:14:46;;;;;;;26.27;21.85;;;;;;;3.94;100.00;101396.50;4977457;28;20066;-73
2023/12/14 07:17:12;;;;;;;26.75;22.15;;;;;;;3.90;100.00;101399.22;4975432;28;20039;-73
2023/12/14 07:19:38;;;;;;;25.75;21.10;;;;;;;3.91;100.00;101412.34;4982104;28;20046;-73
2023/12/14 07:22:03;;;;;;;25.33;21.05;;;;;;;3.91;100.00;101414.09;4983444;28;20105;-73
2023/12/14 07:24:29;;;;;;;25.25;20.80;;;;;;;3.89;100.00;101426.44;4981192;28;20137;-73
2023/12/14 07:26:54;;;;;;;27.50;22.52;;;;;;;3.86;100.00;101426.47;4979234;28;20129;-71
2023/12/14 07:29:20;;;;;;;27.85;22.98;;;;;;;3.87;100.00;101429.06;4984278;28;20046;-71
2023/12/14 07:31:45;;;;;;;29.42;22.38;;;;;;;3.90;100.00;101449.25;4975996;28;20045;-73
2023/12/14 07:34:11;;;;;;;29.05;22.55;;;;;;;3.88;100.00;101453.66;4974587;28;20555;-73
2023/12/14 07:36:37;;;;;;;29.05;21.58;;;;;;;3.85;100.00;101451.06;4983809;28;20042;-72
2023/12/14 07:39:03;;;;;;;28.00;22.65;;;;;;;3.83;100.00;101456.34;4984431;28;20030;-72
2023/12/14 07:41:29;;;;;;;33.88;24.15;;;;;;;3.80;100.00;101456.38;4977654;28;20519;-73
2023/12/14 07:43:55;;;;;;;35.80;24.30;;;;;;;3.77;100.00;101461.69;4965224;28;20105;-72
2023/12/14 07:46:21;;;;;;;39.78;27.08;;;;;;;3.67;100.00;101453.03;4982390;28;20066;-73
2023/12/14 07:48:47;;;;;;;39.20;25.60;;;;;;;3.74;100.00;101467.00;4984120;28;20034;-72
2023/12/14 07:51:12;;;;;;;40.65;25.92;;;;;;;3.72;100.00;101471.41;4972755;28;20034;-73
2023/12/14 07:53:42;;;;;;;41.70;26.65;;;;;;;3.60;100.00;101467.19;4983263;28;20069;-72
2023/12/14 07:56:09;;;;;;;40.45;27.92;;;;;;;3.68;100.00;101482.88;4992843;28;20116;-72
2023/12/14 07:58:34;;;;;;;40.95;27.05;;;;;;;3.66;100.00;101487.28;4977689;28;20564;-72
2023/12/14 08:00:59;;;;;;;40.05;26.85;;;;;;;3.64;100.00;101504.88;4980451;28;20030;-73
2023/12/14 08:03:25;;;;;;;37.05;25.38;;;;;;;3.62;100.00;101507.50;4981983;28;20496;-72
2023/12/14 08:05:51;;;;;;;40.30;26.52;;;;;;;3.63;100.00;101517.13;4983288;28;20042;-72
2023/12/14 08:08:16;;;;;;;38.85;25.60;;;;;;;3.66;100.00;101521.50;4984481;28;20038;-72
2023/12/14 08:10:41;;;;;;;36.25;24.83;;;;;;;3.60;100.00;101522.47;4984124;28;20392;-72
2023/12/14 08:13:07;;;;;;;39.95;24.38;;;;;;;3.60;100.00;101526.84;4983608;28;20551;-73
2023/12/14 08:15:32;;;;;;;33.90;23.90;;;;;;;3.48;100.00;101509.44;4981507;28;20165;-73
2023/12/14 08:17:57;;;;;;;34.33;23.10;;;;;;;3.59;100.00;101532.97;4978221;28;20103;-74
2023/12/14 08:20:23;;;;;;;31.83;21.60;;;;;;;3.55;100.00;101541.81;4980674;28;20034;-72
2023/12/14 08:22:48;;;;;;;31.27;21.65;;;;;;;3.56;100.00;101543.56;4978097;28;20149;-73
2023/12/14 08:25:14;;;;;;;34.72;22.58;;;;;;;3.61;100.00;101539.13;4984439;28;20041;-73
2023/12/14 08:27:40;;;;;;;30.80;22.73;;;;;;;3.56;100.00;101536.53;4980008;28;20038;-72
2023/12/14 08:30:06;;;;;;;33.00;22.73;;;;;;;3.66;100.00;101547.84;4986227;28;20100;-73
2023/12/14 08:32:31;;;;;;;30.38;21.45;;;;;;;3.59;100.00;101535.63;4986077;28;20101;-74
2023/12/14 08:34:57;;;;;;;30.40;20.50;;;;;;;3.69;100.00;101553.94;4985425;28;20035;-73
2023/12/14 08:37:22;;;;;;;29.42;21.35;;;;;;;3.75;100.00;101555.63;4983564;28;20449;-72
2023/12/14 08:39:50;;;;;;;31.90;21.45;;;;;;;3.73;100.00;101566.19;4986851;28;20479;-73
2023/12/14 08:42:15;;;;;;;30.25;21.08;;;;;;;3.74;100.00;101561.78;4987188;28;20049;-73
2023/12/14 08:44:41;;;;;;;25.38;18.63;;;;;;;3.63;100.00;101566.28;4983280;28;20035;-72
2023/12/14 08:47:08;;;;;;;24.30;19.17;;;;;;;3.74;100.00;101569.69;4992168;28;20491;-72
2023/12/14 08:49:35;;;;;;;27.88;19.25;;;;;;;3.71;100.00;101574.97;4993034;28;20039;-73
2023/12/14 08:52:00;;;;;;;28.45;18.38;;;;;;;3.68;100.00;101570.63;4983481;28;20042;-71
2023/12/14 08:54:26;;;;;;;22.98;17.50;;;;;;;3.74;100.00;101586.34;4990964;28;20542;-72
2023/12/14 08:56:52;;;;;;;24.17;18.35;;;;;;;3.72;100.00;101587.25;4988284;28;20061;-73
2023/12/14 08:59:19;;;;;;;26.95;19.48;;;;;;;3.78;100.00;101605.63;4992064;28;20066;-72
2023/12/14 09:01:44;;;;;;;25.17;18.00;;;;;;;3.76;100.00;101612.66;4999095;28;20030;-73
2023/12/14 09:04:09;;;;;;;28.73;19.05;;;;;;;3.72;100.00;101611.84;5002035;28;20057;-73
2023/12/14 09:06:35;;;;;;;24.83;18.13;;;;;;;3.68;100.00;101610.13;4992633;28;20069;-72
2023/12/14 09:09:00;;;;;;;21.42;17.42;;;;;;;3.70;100.00;101612.72;4980156;28;20069;-72
2023/12/14 09:11:26;;;;;;;24.38;17.73;;;;;;;3.66;100.00;101614.50;4977793;28;21937;-72
2023/12/14 09:13:51;;;;;;;20.40;17.88;;;;;;;3.67;100.00;101613.63;4982728;28;20079;-72
2023/12/14 09:16:17;;;;;;;20.60;16.58;;;;;;;3.66;100.00;101614.50;4977793;28;20469;-73
2023/12/14 09:18:42;;;;;;;20.88;17.17;;;;;;;3.68;100.00;101627.69;4982716;28;20129;-73
2023/12/14 09:21:08;;;;;;;19.23;16.55;;;;;;;3.65;100.00;101625.94;4979222;28;20042;-72
2023/12/14 09:23:33;;;;;;;22.70;17.30;;;;;;;3.71;100.00;101644.28;4963890;28;20042;-73
2023/12/14 09:25:59;;;;;;;20.63;16.88;;;;;;;3.76;100.00;101649.50;4977439;28;20101;-72
2023/12/14 09:28:25;;;;;;;19.65;16.45;;;;;;;3.76;100.00;101652.16;4974418;28;20622;-73
2023/12/14 09:30:50;;;;;;;20.73;17.30;;;;;;;3.78;100.00;101658.28;4979873;28;20072;-71
2023/12/14 09:33:16;;;;;;;18.13;15.82;;;;;;;3.74;100.00;101656.56;4979836;28;20065;-71
2023/12/14 09:35:42;;;;;;;19.58;15.68;;;;;;;3.74;100.00;101653.94;4977536;28;20196;-74
2023/12/14 09:38:07;;;;;;;17.42;15.13;;;;;;;3.81;100.00;101665.31;4976597;28;20627;-73
2023/12/14 09:40:34;;;;;;;19.10;16.33;;;;;;;3.83;100.00;101677.53;4980659;28;20042;-73
2023/12/14 09:43:00;;;;;;;19.15;16.13;;;;;;;3.85;100.00;101675.78;4981839;28;20488;-73
2023/12/14 09:45:29;;;;;;;19.38;14.70;;;;;;;3.86;100.00;101680.16;4980317;28;20154;-73
2023/12/14 09:47:57;;;;;;;17.75;15.85;;;;;;;3.91;100.00;101685.38;4956281;28;20056;-73
2023/12/14 09:50:23;;;;;;;19.75;17.17;;;;;;;3.82;100.00;101681.06;4981409;28;20046;-72
2023/12/14 09:52:49;;;;;;;18.40;16.25;;;;;;;3.89;100.00;101695.94;4975808;28;20045;-72
2023/12/14 09:55:15;;;;;;;20.95;17.02;;;;;;;3.88;100.00;101707.34;4971933;28;20058;-72
2023/12/14 09:57:40;;;;;;;20.90;17.73;;;;;;;3.93;100.00;101713.47;4981880;28;20042;-76
2023/12/14 10:00:10;;;;;;;20.67;17.63;;;;;;;3.89;100.00;101703.84;4980953;28;20039;-74
2023/12/14 10:02:35;;;;;;;21.23;16.95;;;;;;;3.91;100.00;101711.72;4980049;28;20038;-74
2023/12/14 10:05:01;;;;;;;16.98;15.18;;;;;;;3.92;100.00;101716.09;4983431;28;20038;-74
2023/12/14 10:07:26;;;;;;;17.50;15.30;;;;;;;3.92;100.00;101721.34;4981408;28;20125;-73
2023/12/14 10:09:53;;;;;;;17.67;15.25;;;;;;;3.96;100.00;101717.81;4970712;28;20058;-74
2023/12/14 10:12:19;;;;;;;16.95;15.05;;;;;;;3.98;100.00;101730.09;4990353;28;20167;-75
2023/12/14 10:14:44;;;;;;;17.17;15.13;;;;;;;4.00;100.00;101727.41;4981726;28;20030;-74
2023/12/14 10:17:21;;;;;;;17.58;14.90;;;;;;;4.03;100.00;101742.34;4977932;28;20038;-74
2023/12/14 10:19:47;;;;;;;17.80;15.90;;;;;;;4.02;100.00;101744.09;4980913;28;20400;-75
2023/12/14 10:22:20;;;;;;;17.20;14.73;;;;;;;4.00;100.00;101741.47;4956390;28;20574;-73
2023/12/14 10:24:48;;;;;;;17.52;14.98;;;;;;;4.02;100.00;101740.59;4980583;28;20042;-74
2023/12/14 10:27:15;;;;;;;16.20;14.50;;;;;;;4.03;100.00;101740.56;4977823;28;20066;-74
2023/12/14 10:29:41;;;;;;;15.75;13.98;;;;;;;4.15;100.00;101744.84;4977053;28;20122;-74
2023/12/14 10:32:10;;;;;;;15.98;13.90;;;;;;;4.20;100.00;101756.22;4975888;28;20499;-76
2023/12/14 10:34:35;;;;;;;18.15;13.73;;;;;;;4.13;100.00;101743.97;4969606;28;20041;-74
2023/12/14 10:37:04;;;;;;;17.38;14.25;;;;;;;4.16;100.00;101759.78;4987972;28;20050;-76
2023/12/14 10:39:31;;;;;;;16.08;14.48;;;;;;;4.07;100.00;101747.56;4956267;28;20046;-76
2023/12/14 10:41:58;;;;;;;15.43;13.68;;;;;;;4.12;100.00;101758.91;4973449;28;20129;-74
2023/12/14 10:44:30;;;;;;;16.80;14.50;;;;;;;4.11;100.00;101753.69;4976380;28;20145;-73
2023/12/14 10:46:58;;;;;;;17.40;15.43;;;;;;;4.12;100.00;101751.00;4978260;28;20605;-74
2023/12/14 10:49:25;;;;;;;15.43;13.82;;;;;;;4.20;100.00;101759.72;4982524;28;20550;-74
2023/12/14 10:51:54;;;;;;;17.13;15.07;;;;;;;4.25;100.00;101764.94;4971787;28;20553;-74
2023/12/14 10:54:20;;;;;;;18.92;16.83;;;;;;;4.23;100.00;101759.69;4981478;28;20035;-74
2023/12/14 10:56:45;;;;;;;16.15;14.18;;;;;;;4.18;100.00;101753.59;4978517;28;20034;-73
2023/12/14 10:59:14;;;;;;;16.98;14.35;;;;;;;4.22;100.00;101765.88;4978059;28;20039;-75
2023/12/14 11:01:42;;;;;;;15.02;13.45;;;;;;;4.13;100.00;101768.56;4970696;28;20513;-75
2023/12/14 11:04:15;;;;;;;15.65;13.27;;;;;;;4.09;100.00;101760.72;4962466;28;20711;-75